Terminal Aerodrome Forecast
Issued by NWS

Home | Current Version | Previous Version | Text Only | Print | Product List | Glossary On
Versions: 1 2 3 4 5 6 7 8 9 10 11 12 13 14 15
000
FTUS41 KPBZ 091734 AAA
TAFFKL
TAF AMD
KFKL 091734Z 0918/1018 28012G22KT 3SM -SHSN OVC015
      TEMPO 0918/0922 1 1/2SM -SHSN
     FM100500 25008KT P6SM -SHSN OVC020
      AMD NOT SKED=

USA.gov is the U.S. government's official web portal to all federal, state and local government web resources and services.